Time;durP1;ratioP1;P1;durP2;ratioP2;P2;SDS_P1;SDS_P2;PMS_P1;PMS_P2;Temp;Humidity;BMP_temperature;BMP_pressure;BME280_temperature;BME280_humidity;BME280_pressure;Samples;Min_cycle;Max_cycle;Signal;HPM_P1;HPM_P2
2022/09/12 00:05:02;;;;;;;11.90;10.80;;;;;15.50;99035.00;;;;16574293;28;20218;-48
2022/09/12 00:13:05;;;;;;;11.20;10.07;;;;;15.70;99029.00;;;;16576435;28;20258;-48
2022/09/12 00:21:09;;;;;;;14.30;12.00;;;;;15.80;99025.00;;;;16579673;28;20233;-49
2022/09/12 00:29:14;;;;;;;11.77;10.67;;;;;15.50;99027.00;;;;16573883;28;20229;-48
2022/09/12 00:37:18;;;;;;;11.57;10.47;;;;;15.70;99017.00;;;;16574345;28;20225;-48
2022/09/12 00:45:24;;;;;;;12.00;10.90;;;;;15.30;99014.00;;;;16578521;28;20222;-51
2022/09/12 00:53:28;;;;;;;11.63;10.60;;;;;15.60;99006.00;;;;16579529;28;20306;-48
2022/09/12 01:01:31;;;;;;;11.80;10.70;;;;;15.20;99007.00;;;;16584415;28;20228;-48
2022/09/12 01:09:35;;;;;;;11.80;10.70;;;;;15.20;98997.00;;;;16593075;28;20222;-49
2022/09/12 01:17:48;;;;;;;12.10;11.03;;;;;14.80;99001.00;;;;16592409;28;20670;-48
2022/09/12 01:26:03;;;;;;;12.30;10.93;;;;;14.60;98987.00;;;;16588854;28;20235;-48
2022/09/12 01:34:14;;;;;;;13.70;12.40;;;;;14.70;98981.00;;;;16582314;28;20219;-48
2022/09/12 01:42:22;;;;;;;13.40;12.20;;;;;14.60;98977.00;;;;16589461;28;20825;-47
2022/09/12 01:50:28;;;;;;;13.77;12.47;;;;;14.80;98970.00;;;;16578022;28;20222;-48
2022/09/12 01:58:35;;;;;;;17.93;12.20;;;;;15.00;98965.00;;;;16589274;28;20273;-48
2022/09/12 02:06:46;;;;;;;14.37;12.93;;;;;14.70;98956.00;;;;16584741;28;20233;-49
2022/09/12 02:14:51;;;;;;;13.20;11.90;;;;;14.90;98958.00;;;;16587542;28;20201;-47
2022/09/12 02:22:57;;;;;;;15.67;12.47;;;;;15.40;98946.00;;;;16585928;28;20229;-48
2022/09/12 02:31:04;;;;;;;13.50;12.20;;;;;15.00;98943.00;;;;16587118;28;20225;-47
2022/09/12 02:39:08;;;;;;;14.10;12.10;;;;;15.20;98937.00;;;;16583687;28;20718;-48
2022/09/12 02:47:14;;;;;;;13.53;12.23;;;;;14.90;98936.00;;;;16586568;28;20245;-48
2022/09/12 02:55:18;;;;;;;14.80;13.30;;;;;14.80;98942.00;;;;16583748;28;20189;-48
2022/09/12 03:03:33;;;;;;;16.23;13.50;;;;;15.00;98931.00;;;;16584604;28;20247;-48
2022/09/12 03:12:04;;;;;;;15.07;13.57;;;;;15.20;98928.00;;;;16578748;28;20219;-49
2022/09/12 03:20:14;;;;;;;16.73;12.73;;;;;14.70;98929.00;;;;16583959;28;20244;-48
2022/09/12 03:28:21;;;;;;;14.47;12.97;;;;;14.40;98939.00;;;;16584027;28;20241;-49
2022/09/12 03:36:25;;;;;;;13.73;12.20;;;;;14.00;98947.00;;;;16575329;28;20204;-48
2022/09/12 03:44:29;;;;;;;13.70;12.40;;;;;14.70;98934.00;;;;16581567;28;20229;-48
2022/09/12 03:52:31;;;;;;;14.53;13.20;;;;;14.80;98935.00;;;;16579040;28;20717;-48
2022/09/12 04:00:36;;;;;;;15.97;14.37;;;;;14.10;98934.00;;;;16581189;28;20227;-48
2022/09/12 04:08:39;;;;;;;13.90;12.60;;;;;14.30;98938.00;;;;16569120;28;20238;-49
2022/09/12 04:16:42;;;;;;;19.77;14.07;;;;;13.90;98943.00;;;;16579468;28;21161;-48
2022/09/12 04:24:45;;;;;;;15.80;14.13;;;;;14.00;98932.00;;;;16576436;28;20232;-48
2022/09/12 04:32:49;;;;;;;13.50;12.30;;;;;13.90;98937.00;;;;16576507;28;20325;-48
2022/09/12 04:40:54;;;;;;;13.40;12.17;;;;;13.70;98927.00;;;;16575311;28;20234;-48
2022/09/12 04:49:00;;;;;;;14.43;13.03;;;;;13.80;98934.00;;;;16576192;28;20234;-48
2022/09/12 04:57:02;;;;;;;16.37;14.67;;;;;14.20;98927.00;;;;16567487;28;20702;-48
2022/09/12 05:05:07;;;;;;;15.63;14.07;;;;;13.70;98937.00;;;;16557932;28;20674;-48
2022/09/12 05:13:09;;;;;;;14.70;13.17;;;;;13.90;98935.00;;;;16571640;28;20311;-48
2022/09/12 05:21:15;;;;;;;17.67;13.70;;;;;14.60;98931.00;;;;16570102;28;20355;-48
2022/09/12 05:29:17;;;;;;;14.27;12.80;;;;;14.80;98934.00;;;;16566645;28;20226;-48
2022/09/12 05:37:22;;;;;;;18.27;13.07;;;;;14.90;98937.00;;;;16570902;28;20224;-48
2022/09/12 05:45:27;;;;;;;16.13;14.40;;;;;14.60;98950.00;;;;16568557;28;20274;-48
2022/09/12 05:53:32;;;;;;;15.53;14.03;;;;;14.80;98951.00;;;;16580533;28;20760;-49
2022/09/12 06:01:35;;;;;;;15.20;13.80;;;;;14.70;98942.00;;;;16579861;28;20343;-50
2022/09/12 06:09:39;;;;;;;16.27;14.63;;;;;14.80;98941.00;;;;16577886;28;20324;-48
2022/09/12 06:17:42;;;;;;;15.27;13.73;;;;;15.20;98936.00;;;;16580447;28;20231;-48
2022/09/12 06:25:50;;;;;;;16.83;13.50;;;;;15.60;98930.00;;;;16580344;28;20225;-48
2022/09/12 06:33:54;;;;;;;13.87;12.57;;;;;15.70;98920.00;;;;16581645;28;20689;-48
2022/09/12 06:41:58;;;;;;;13.63;12.27;;;;;15.70;98921.00;;;;16582886;28;20643;-48
2022/09/12 06:50:10;;;;;;;14.77;13.37;;;;;15.90;98923.00;;;;16583624;28;20880;-48
2022/09/12 06:58:13;;;;;;;15.00;13.47;;;;;16.10;98924.00;;;;16584745;28;20711;-48
2022/09/12 07:06:20;;;;;;;13.80;12.50;;;;;16.20;98933.00;;;;16566289;28;20247;-48
2022/09/12 07:14:24;;;;;;;17.80;12.77;;;;;16.50;98918.00;;;;16559757;28;20210;-48
2022/09/12 07:22:27;;;;;;;12.53;11.43;;;;;16.50;98918.00;;;;16556211;28;20235;-48
2022/09/12 07:30:31;;;;;;;13.10;11.90;;;;;17.10;98910.00;;;;16554357;28;20236;-48
2022/09/12 07:38:33;;;;;;;12.57;11.37;;;;;17.30;98917.00;;;;16571847;28;20238;-48
2022/09/12 07:46:38;;;;;;;11.47;10.37;;;;;17.80;98902.00;;;;16567211;28;20238;-48
2022/09/12 07:54:43;;;;;;;10.87;9.97;;;;;18.30;98908.00;;;;16563416;28;20240;-48
2022/09/12 08:02:53;;;;;;;11.77;10.57;;;;;18.60;98903.00;;;;16570630;28;20664;-49
2022/09/12 08:10:58;;;;;;;11.30;10.20;;;;;18.70;98899.00;;;;16567483;28;20315;-49
2022/09/12 08:19:05;;;;;;;11.03;10.03;;;;;19.00;98894.00;;;;16565301;28;20231;-49
2022/09/12 08:27:08;;;;;;;11.53;10.40;;;;;19.50;98879.00;;;;16555734;28;20704;-48
2022/09/12 08:35:11;;;;;;;10.30;9.40;;;;;20.00;98885.00;;;;16559410;28;20210;-49
2022/09/12 08:43:23;;;;;;;9.63;8.33;;;;;20.30;98884.00;;;;16563104;28;21065;-49
2022/09/12 08:51:28;;;;;;;8.57;7.67;;;;;20.70;98878.00;;;;16553617;28;20227;-49
2022/09/12 08:59:37;;;;;;;8.20;7.47;;;;;21.50;98852.00;;;;16559601;28;20231;-49
2022/09/12 09:07:54;;;;;;;7.37;6.67;;;;;21.70;98857.00;;;;16544912;28;20223;-49
2022/09/12 09:16:01;;;;;;;6.37;5.87;;;;;22.20;98855.00;;;;16556304;28;20629;-49
2022/09/12 09:24:09;;;;;;;6.10;4.07;;;;;22.40;98842.00;;;;16559625;28;20227;-49
2022/09/12 09:32:15;;;;;;;3.87;3.60;;;;;23.00;98839.00;;;;16572625;28;20225;-49
2022/09/12 09:40:24;;;;;;;6.83;6.23;;;;;24.90;98831.00;;;;16572061;28;20227;-50
2022/09/12 09:48:29;;;;;;;3.63;3.20;;;;;25.20;98824.00;;;;16576211;28;20227;-49
2022/09/12 09:56:35;;;;;;;6.50;3.20;;;;;24.60;98841.00;;;;16576444;28;20264;-49
2022/09/12 10:04:40;;;;;;;2.30;2.13;;;;;25.10;98830.00;;;;16578990;28;20344;-49
2022/09/12 10:12:45;;;;;;;2.87;2.67;;;;;26.50;98827.00;;;;16578552;28;20838;-49
2022/09/12 10:20:47;;;;;;;3.13;2.93;;;;;26.60;98813.00;;;;16577798;28;20692;-49
2022/09/12 10:28:53;;;;;;;2.43;2.20;;;;;26.80;98825.00;;;;16568149;28;20574;-50
2022/09/12 10:37:00;;;;;;;2.13;2.03;;;;;26.90;98819.00;;;;16575748;28;20223;-49
2022/09/12 10:45:05;;;;;;;3.83;2.40;;;;;27.40;98814.00;;;;16574648;28;20273;-49
2022/09/12 10:53:18;;;;;;;2.93;2.30;;;;;28.20;98805.00;;;;16570110;28;20286;-49
2022/09/12 11:01:34;;;;;;;2.27;2.03;;;;;27.90;98798.00;;;;16567009;28;20254;-49
2022/09/12 11:09:42;;;;;;;3.03;2.37;;;;;29.10;98784.00;;;;16575319;28;20707;-49
2022/09/12 11:17:51;;;;;;;3.00;2.20;;;;;29.40;98776.00;;;;16578698;28;20246;-49
2022/09/12 11:25:59;;;;;;;2.43;2.23;;;;;29.80;98776.00;;;;16579580;28;20616;-49
2022/09/12 11:34:09;;;;;;;2.13;1.93;;;;;30.00;98771.00;;;;16580615;28;20245;-50
2022/09/12 11:42:19;;;;;;;2.50;2.30;;;;;29.60;98767.00;;;;16582742;28;20252;-50
2022/09/12 11:50:28;;;;;;;3.93;1.90;;;;;30.30;98754.00;;;;16579188;28;20227;-49
2022/09/12 11:58:31;;;;;;;1.63;1.53;;;;;31.40;98749.00;;;;16577232;28;20465;-49
2022/09/12 12:06:49;;;;;;;3.83;1.77;;;;;30.70;98747.00;;;;16576131;28;20219;-50
2022/09/12 12:14:53;;;;;;;1.63;1.53;;;;;32.10;98742.00;;;;16568277;28;20214;-50
2022/09/12 12:22:59;;;;;;;1.73;1.63;;;;;32.60;98736.00;;;;16566446;28;20294;-50
2022/09/12 12:31:05;;;;;;;1.50;1.40;;;;;31.20;98726.00;;;;16573902;28;20889;-50
2022/09/12 12:39:46;;;;;;;1.57;1.43;;;;;31.40;98723.00;;;;16575783;28;20696;-50
2022/09/12 12:47:51;;;;;;;1.43;1.33;;;;;33.20;98710.00;;;;16552386;28;20235;-50
2022/09/12 12:55:56;;;;;;;1.90;1.73;;;;;32.80;98705.00;;;;16580199;28;20221;-50
2022/09/12 13:04:02;;;;;;;2.97;1.30;;;;;33.40;98708.00;;;;16587660;28;20230;-50
2022/09/12 13:12:10;;;;;;;1.43;1.33;;;;;34.90;98700.00;;;;16591110;28;20222;-50
2022/09/12 13:20:21;;;;;;;1.30;1.20;;;;;34.60;98688.00;;;;16588921;28;20602;-50
2022/09/12 13:28:25;;;;;;;1.50;1.40;;;;;34.80;98690.00;;;;16579545;28;20314;-51
2022/09/12 13:36:47;;;;;;;1.63;1.53;;;;;35.70;98683.00;;;;16584716;28;20203;-50
2022/09/12 13:44:52;;;;;;;1.53;1.10;;;;;35.40;98669.00;;;;16584106;28;20227;-50
2022/09/12 13:52:58;;;;;;;1.40;0.80;;;;;36.20;98663.00;;;;16583789;28;20215;-50
2022/09/12 14:01:03;;;;;;;0.90;0.90;;;;;34.90;98656.00;;;;16584021;28;20292;-50
2022/09/12 14:09:13;;;;;;;0.67;0.67;;;;;36.40;98654.00;;;;16578540;28;20231;-50
2022/09/12 14:17:17;;;;;;;1.03;1.00;;;;;35.70;98646.00;;;;16573140;28;20226;-50
2022/09/12 14:25:23;;;;;;;1.37;0.90;;;;;36.60;98635.00;;;;16558870;28;20637;-50
2022/09/12 14:33:25;;;;;;;0.73;0.73;;;;;37.00;98637.00;;;;16573043;28;20226;-50
2022/09/12 14:41:31;;;;;;;1.83;1.30;;;;;36.90;98635.00;;;;16573659;28;20691;-50
2022/09/12 14:49:34;;;;;;;1.47;1.20;;;;;37.10;98630.00;;;;16562287;28;20276;-51
2022/09/12 14:57:40;;;;;;;1.70;1.60;;;;;36.50;98620.00;;;;16569749;28;20238;-51
2022/09/12 15:05:49;;;;;;;1.40;1.30;;;;;37.50;98615.00;;;;16570412;28;20683;-50
2022/09/12 15:13:53;;;;;;;1.30;1.20;;;;;36.80;98618.00;;;;16569368;28;20227;-50
2022/09/12 15:21:58;;;;;;;0.97;0.97;;;;;37.60;98616.00;;;;16574810;28;20241;-50
2022/09/12 15:30:01;;;;;;;1.97;1.30;;;;;36.40;98612.00;;;;16576769;28;20820;-50
2022/09/12 15:38:04;;;;;;;1.93;1.33;;;;;35.60;98605.00;;;;16566841;28;20306;-51
2022/09/12 15:46:11;;;;;;;1.30;1.20;;;;;35.80;98606.00;;;;16571631;28;20249;-50
2022/09/12 15:54:14;;;;;;;1.87;1.30;;;;;37.00;98588.00;;;;16570601;28;20219;-50
2022/09/12 16:02:18;;;;;;;1.57;1.47;;;;;37.80;98588.00;;;;16564457;28;20224;-51
2022/09/12 16:10:23;;;;;;;1.53;1.43;;;;;36.50;98583.00;;;;16572832;28;20288;-50
2022/09/12 16:18:29;;;;;;;1.60;1.40;;;;;37.00;98578.00;;;;16573926;28;20303;-51
2022/09/12 16:26:31;;;;;;;1.70;1.60;;;;;36.70;98561.00;;;;16574214;28;20223;-50
2022/09/12 16:34:35;;;;;;;2.60;2.17;;;;;34.90;98564.00;;;;16578404;28;20676;-51
2022/09/12 16:42:37;;;;;;;3.53;1.97;;;;;35.00;98561.00;;;;16568955;28;20219;-50
2022/09/12 16:50:41;;;;;;;2.03;1.83;;;;;34.40;98553.00;;;;16570944;28;20234;-50
2022/09/12 16:58:43;;;;;;;1.90;1.80;;;;;31.40;98557.00;;;;16568989;28;20261;-50
2022/09/12 17:06:47;;;;;;;3.53;2.10;;;;;27.60;98556.00;;;;16575758;28;20220;-49
2022/09/12 17:14:50;;;;;;;4.03;2.03;;;;;25.80;98571.00;;;;16574176;28;20289;-49
2022/09/12 17:22:53;;;;;;;2.70;1.90;;;;;24.70;98571.00;;;;16562968;28;20227;-49
2022/09/12 17:30:56;;;;;;;2.10;1.90;;;;;23.20;98570.00;;;;16571957;28;20223;-49
2022/09/12 17:39:01;;;;;;;4.20;2.60;;;;;22.70;98575.00;;;;16570198;28;20225;-50
2022/09/12 17:47:05;;;;;;;2.60;2.40;;;;;22.40;98575.00;;;;16575632;28;20235;-49
2022/09/12 17:55:09;;;;;;;2.43;2.23;;;;;22.30;98581.00;;;;16584229;28;20206;-47
2022/09/12 18:03:11;;;;;;;8.00;2.93;;;;;22.10;98585.00;;;;16580897;28;20220;-48
2022/09/12 18:11:15;;;;;;;4.90;2.80;;;;;21.70;98592.00;;;;16575686;28;20321;-47
2022/09/12 18:19:17;;;;;;;2.93;2.60;;;;;21.30;98578.00;;;;16576846;28;20226;-47
2022/09/12 18:27:21;;;;;;;3.30;3.00;;;;;21.00;98591.00;;;;16574683;28;20243;-48
2022/09/12 18:35:24;;;;;;;5.53;3.40;;;;;20.40;98588.00;;;;16562000;28;20207;-48
2022/09/12 18:43:28;;;;;;;3.90;2.97;;;;;20.90;98599.00;;;;16565291;28;20222;-48
2022/09/12 18:51:33;;;;;;;4.67;2.90;;;;;20.10;98606.00;;;;16564734;28;20252;-49
2022/09/12 18:59:37;;;;;;;3.80;3.40;;;;;20.20;98599.00;;;;16558018;28;20246;-49
2022/09/12 19:07:40;;;;;;;4.30;3.17;;;;;20.00;98598.00;;;;16564549;28;20307;-49
2022/09/12 19:15:43;;;;;;;3.90;3.30;;;;;19.50;98600.00;;;;16570252;28;20577;-49
2022/09/12 19:23:46;;;;;;;3.60;3.30;;;;;19.50;98604.00;;;;16573241;28;20531;-49
2022/09/12 19:31:50;;;;;;;3.37;3.17;;;;;19.30;98597.00;;;;16575574;28;20699;-49
2022/09/12 19:39:52;;;;;;;3.77;3.20;;;;;18.80;98600.00;;;;16562268;28;20224;-49
2022/09/12 19:47:56;;;;;;;3.90;3.20;;;;;18.60;98599.00;;;;16572146;28;20248;-49
2022/09/12 19:56:03;;;;;;;3.80;3.50;;;;;18.50;98589.00;;;;16562450;28;20250;-49
2022/09/12 20:13:30;;;;;;;4.97;4.23;;;;;18.40;98600.00;;;;16553816;28;20253;-50
2022/09/12 20:21:34;;;;;;;4.57;3.87;;;;;18.50;98602.00;;;;16568232;28;20238;-49
2022/09/12 20:29:38;;;;;;;3.90;3.50;;;;;18.20;98600.00;;;;16569769;28;20299;-49
2022/09/12 20:37:40;;;;;;;3.83;3.47;;;;;18.60;98586.00;;;;16575922;28;20229;-49
2022/09/12 20:45:44;;;;;;;3.67;3.37;;;;;19.00;98568.00;;;;16576471;28;20291;-49
2022/09/12 20:53:47;;;;;;;3.70;3.27;;;;;18.20;98547.00;;;;16574232;28;20302;-49
2022/09/12 21:01:50;;;;;;;6.13;3.80;;;;;17.90;98568.00;;;;16571061;28;20211;-49
2022/09/12 21:09:53;;;;;;;3.53;3.23;;;;;17.80;98581.00;;;;16572022;28;20314;-49
2022/09/12 21:17:57;;;;;;;5.70;3.83;;;;;17.70;98570.00;;;;16574756;28;20247;-49
2022/09/12 21:26:00;;;;;;;3.43;3.13;;;;;17.60;98574.00;;;;16580716;28;20207;-49
2022/09/12 21:34:04;;;;;;;3.67;3.47;;;;;17.60;98584.00;;;;16591043;28;20593;-49
2022/09/12 21:42:07;;;;;;;3.43;3.20;;;;;17.30;98584.00;;;;16588142;28;20288;-49
2022/09/12 21:50:12;;;;;;;3.70;3.33;;;;;17.20;98594.00;;;;16589314;28;20231;-49
2022/09/12 21:58:14;;;;;;;4.43;3.37;;;;;17.50;98567.00;;;;16586130;28;20219;-50
2022/09/12 22:06:18;;;;;;;3.27;2.97;;;;;17.00;98576.00;;;;16588907;28;20393;-49
2022/09/12 22:14:20;;;;;;;4.37;3.53;;;;;17.00;98570.00;;;;16579881;28;20203;-49
2022/09/12 22:30:47;;;;;;;4.27;3.97;;;;;16.90;98536.00;;;;16584509;28;20711;-49
2022/09/12 22:38:51;;;;;;;3.10;2.90;;;;;17.10;98522.00;;;;16576353;28;20312;-49
2022/09/12 22:46:53;;;;;;;3.63;3.33;;;;;17.00;98505.00;;;;16581718;28;20223;-49
2022/09/12 22:54:57;;;;;;;3.60;3.10;;;;;16.90;98504.00;;;;16585544;28;20746;-49
2022/09/12 23:03:00;;;;;;;3.43;3.13;;;;;16.90;98524.00;;;;16578531;28;20223;-49
2022/09/12 23:11:05;;;;;;;4.60;3.37;;;;;16.90;98530.00;;;;16586148;28;20550;-49
2022/09/12 23:19:08;;;;;;;4.87;3.87;;;;;16.70;98528.00;;;;16584927;28;20227;-49
2022/09/12 23:27:12;;;;;;;3.40;3.20;;;;;16.60;98524.00;;;;16579624;28;20707;-49
2022/09/12 23:35:14;;;;;;;3.63;3.30;;;;;17.00;98528.00;;;;16584553;28;20206;-49
2022/09/12 23:43:18;;;;;;;3.60;3.40;;;;;16.60;98528.00;;;;16582899;28;20223;-49
2022/09/12 23:51:21;;;;;;;3.83;3.43;;;;;16.50;98502.00;;;;16578167;28;20308;-49
2022/09/12 23:59:25;;;;;;;6.47;3.63;;;;;16.60;98496.00;;;;16576993;28;20249;-49
